Main page
METAR-TAF:

METAR-TAF

Airports :

Saint-Nazaire, France

latitude: 47-19N, longitude: 002-10W, elevation: 3 m

Current weather observation

The report was made 37 minutes ago, at 15:30 UTC
Wind 11 kt from the East/Southeast
Temperature 18°C
Humidity 45%
Pressure 1015 hPa
Visibility 10 km or more
no clouds below 1500 m and no cumulonimbus

METAR: LFRZ 041530Z AUTO 12011KT CAVOK 18/06 Q1015

Time: 18:07 (16:07 UTC)


TAF: missing

Weather observations and forecasts of more than 4000 airports (METAR and TAF reports).

The available stations are represented by yellow and red dots on the map.

Hover mouse over dot to see the name of the station.

Then click to see weather observations and forecasts.

To change the map : click on the green buttons with a black cross to zoom in, on the green button with a dash to zoom out, or on the green arrows for adjacent maps.


METAR-TAF: